createdAt,value
2023-12-30T00:04:07.366Z,0.20
2023-12-30T00:09:10.992Z,3.10
2023-12-30T00:14:14.273Z,0.20
2023-12-30T00:19:19.388Z,1.23
2023-12-30T00:24:22.775Z,0.20
2023-12-30T00:29:26.926Z,0.40
2023-12-30T00:34:34.652Z,0.27
2023-12-30T00:39:37.860Z,0.67
2023-12-30T00:44:41.264Z,1.17
2023-12-30T00:49:46.271Z,1.30
2023-12-30T00:54:51.380Z,2.10
2023-12-30T00:59:54.951Z,2.43
2023-12-30T01:04:59.794Z,0.30
2023-12-30T01:10:03.516Z,0.50
2023-12-30T01:15:07.767Z,1.93
2023-12-30T01:20:13.267Z,1.60
2023-12-30T01:25:16.701Z,1.47
2023-12-30T01:30:20.475Z,2.10
2023-12-30T01:35:25.236Z,1.37
2023-12-30T01:40:28.641Z,5.07
2023-12-30T01:45:32.049Z,0.60
2023-12-30T01:50:37.048Z,0.63
2023-12-30T01:55:40.390Z,3.37
2023-12-30T02:00:44.570Z,0.53
2023-12-30T02:05:50.771Z,0.90
2023-12-30T02:10:54.430Z,0.70
2023-12-30T02:15:59.568Z,2.00
2023-12-30T02:21:04.286Z,1.30
2023-12-30T02:26:09.676Z,2.27
2023-12-30T02:31:13.161Z,3.37
2023-12-30T02:36:16.943Z,1.67
2023-12-30T02:41:21.513Z,1.17
2023-12-30T02:46:24.832Z,0.40
2023-12-30T02:51:28.062Z,4.67
2023-12-30T02:56:32.681Z,3.60
2023-12-30T03:01:36.215Z,3.77
2023-12-30T03:06:39.505Z,1.50
2023-12-30T03:11:44.546Z,3.93
2023-12-30T03:16:47.783Z,0.60
2023-12-30T03:21:51.030Z,4.87
2023-12-30T03:26:55.672Z,3.33
2023-12-30T03:31:58.904Z,7.73
2023-12-30T03:37:02.279Z,1.73
2023-12-30T03:42:07.674Z,1.60
2023-12-30T03:47:11.447Z,2.87
2023-12-30T03:52:15.101Z,3.67
2023-12-30T03:57:19.659Z,6.53
2023-12-30T04:02:23.062Z,5.30
2023-12-30T04:07:26.886Z,1.90
2023-12-30T04:12:34.770Z,2.00
2023-12-30T04:17:38.247Z,4.20
2023-12-30T04:22:41.803Z,5.03
2023-12-30T04:27:46.381Z,2.20
2023-12-30T04:32:50.188Z,1.27
2023-12-30T04:37:53.838Z,0.60
2023-12-30T04:43:00.079Z,13.27
2023-12-30T04:48:03.804Z,11.97
2023-12-30T04:53:07.092Z,0.70
2023-12-30T04:58:12.061Z,4.60
2023-12-30T05:03:15.699Z,2.83
2023-12-30T05:08:19.169Z,5.67
2023-12-30T05:13:24.164Z,3.53
2023-12-30T05:18:27.571Z,2.10
2023-12-30T05:23:30.969Z,4.63
2023-12-30T05:28:35.616Z,4.83
2023-12-30T05:33:39.011Z,1.70
2023-12-30T05:38:42.283Z,2.60
2023-12-30T05:43:47.101Z,3.13
2023-12-30T05:48:51.390Z,3.80
2023-12-30T05:53:54.779Z,5.63
2023-12-30T05:58:59.404Z,3.13
2023-12-30T06:04:02.700Z,3.50
2023-12-30T06:09:06.003Z,4.57
2023-12-30T06:14:10.916Z,7.93
2023-12-30T06:19:17.604Z,1.83
2023-12-30T06:24:22.195Z,0.60
2023-12-30T06:29:29.668Z,2.27
2023-12-30T06:34:35.883Z,3.50
2023-12-30T06:39:39.219Z,4.20
2023-12-30T06:44:44.115Z,4.43
2023-12-30T06:49:47.687Z,0.77
2023-12-30T06:54:59.170Z,3.03
2023-12-30T07:00:12.003Z,6.17
2023-12-30T07:05:15.451Z,5.37
2023-12-30T07:10:18.953Z,5.23
2023-12-30T07:15:24.688Z,2.70
2023-12-30T07:20:28.229Z,1.00
2023-12-30T07:25:31.561Z,7.10
2023-12-30T07:30:36.382Z,5.00
2023-12-30T07:35:39.828Z,15.37
2023-12-30T07:40:43.327Z,3.50
2023-12-30T07:45:47.933Z,9.03
2023-12-30T07:50:51.130Z,3.03
2023-12-30T07:55:54.348Z,2.40
2023-12-30T08:00:59.382Z,1.27
2023-12-30T08:06:02.788Z,2.33
2023-12-30T08:11:06.346Z,0.60
2023-12-30T08:16:11.026Z,1.10
2023-12-30T08:21:14.391Z,2.77
2023-12-30T08:26:17.716Z,2.40
2023-12-30T08:31:22.413Z,2.03
2023-12-30T08:36:27.244Z,1.63
2023-12-30T08:41:30.501Z,1.17
2023-12-30T08:46:35.233Z,2.73
2023-12-30T08:51:38.705Z,0.60
2023-12-30T08:56:42.053Z,4.10
2023-12-30T09:01:46.890Z,2.03
2023-12-30T09:06:50.198Z,4.73
2023-12-30T09:11:53.712Z,3.43
2023-12-30T09:16:58.385Z,5.17
2023-12-30T09:22:02.429Z,2.73
2023-12-30T09:27:05.904Z,2.47
2023-12-30T09:32:10.656Z,2.23
2023-12-30T09:37:16.234Z,3.20
2023-12-30T09:42:19.686Z,1.37
2023-12-30T09:47:25.095Z,5.23
2023-12-30T09:52:28.401Z,2.43
2023-12-30T09:57:31.686Z,2.17
2023-12-30T10:02:36.794Z,0.77
2023-12-30T10:07:40.631Z,2.33
2023-12-30T10:12:44.360Z,1.53
2023-12-30T10:17:49.096Z,6.17
2023-12-30T10:22:53.275Z,4.17
2023-12-30T10:27:57.186Z,1.10
2023-12-30T10:33:09.627Z,1.87
2023-12-30T10:38:15.212Z,2.30
2023-12-30T10:43:20.169Z,1.53
2023-12-30T10:48:26.380Z,5.23
2023-12-30T10:53:32.593Z,2.67
2023-12-30T10:58:37.043Z,0.80
2023-12-30T11:03:41.975Z,1.10
2023-12-30T11:08:46.199Z,4.70
2023-12-30T11:13:49.528Z,2.70
2023-12-30T11:18:57.423Z,4.10
2023-12-30T11:24:04.488Z,4.20
2023-12-30T11:29:12.047Z,4.10
2023-12-30T11:34:17.420Z,1.37
2023-12-30T11:39:31.404Z,1.30
2023-12-30T11:44:34.789Z,3.03
2023-12-30T11:49:40.373Z,3.83
2023-12-30T11:54:43.872Z,9.20
2023-12-30T11:59:47.288Z,5.50
2023-12-30T12:04:52.149Z,1.13
2023-12-30T12:09:55.456Z,2.27
2023-12-30T12:14:59.161Z,2.37
2023-12-30T12:20:06.356Z,3.03
2023-12-30T12:25:11.045Z,2.83
2023-12-30T12:30:15.228Z,0.70
2023-12-30T12:35:22.271Z,3.80
2023-12-30T12:40:26.746Z,2.30
2023-12-30T12:45:31.493Z,1.80
2023-12-30T12:50:36.402Z,1.73
2023-12-30T12:55:39.826Z,3.20
2023-12-30T13:00:44.655Z,1.47
2023-12-30T13:05:50.847Z,5.43
2023-12-30T13:10:55.198Z,4.30
2023-12-30T13:16:00.946Z,3.33
2023-12-30T13:21:09.955Z,2.13
2023-12-30T13:26:13.923Z,1.53
2023-12-30T13:31:23.668Z,1.60
2023-12-30T13:36:30.494Z,2.97
2023-12-30T13:41:36.365Z,5.27
2023-12-30T13:46:58.558Z,0.87
2023-12-30T13:52:06.765Z,0.67
2023-12-30T13:57:14.290Z,6.10
2023-12-30T14:02:19.680Z,2.00
2023-12-30T14:07:28.358Z,3.27
2023-12-30T14:12:31.794Z,4.43
2023-12-30T14:17:36.395Z,0.80
2023-12-30T14:22:42.772Z,3.10
2023-12-30T14:27:46.532Z,10.17
2023-12-30T14:32:49.947Z,1.80
2023-12-30T14:37:55.607Z,1.77
2023-12-30T14:42:59.061Z,4.67
2023-12-30T14:48:03.220Z,4.80
2023-12-30T14:53:08.355Z,9.07
2023-12-30T14:58:11.961Z,2.10
2023-12-30T15:03:15.736Z,3.50
2023-12-30T15:08:20.699Z,5.60
2023-12-30T15:13:24.125Z,4.47
2023-12-30T15:18:27.484Z,3.17
2023-12-30T15:23:32.567Z,1.10
2023-12-30T15:28:36.050Z,5.40
2023-12-30T15:33:39.628Z,1.23
2023-12-30T15:38:44.502Z,2.57
2023-12-30T15:43:47.915Z,2.00
2023-12-30T15:48:51.633Z,3.57
2023-12-30T15:53:56.611Z,8.30
2023-12-30T15:59:00.199Z,6.97
2023-12-30T16:04:04.524Z,2.97
2023-12-30T16:09:09.756Z,3.07
2023-12-30T16:14:13.919Z,3.10
2023-12-30T16:19:19.760Z,1.00
2023-12-30T16:24:25.275Z,2.50
2023-12-30T16:29:28.545Z,3.83
2023-12-30T16:34:34.567Z,11.53
2023-12-30T16:39:39.728Z,8.90
2023-12-30T16:44:43.044Z,12.20
2023-12-30T16:49:46.445Z,3.87
2023-12-30T16:54:52.023Z,3.83
2023-12-30T16:59:55.269Z,3.20
2023-12-30T17:04:58.716Z,3.63
2023-12-30T17:10:05.614Z,2.30
2023-12-30T17:15:09.721Z,4.43
2023-12-30T17:20:13.440Z,5.43
2023-12-30T17:25:18.366Z,4.70
2023-12-30T17:30:22.082Z,3.13
2023-12-30T17:35:26.110Z,1.93
2023-12-30T17:40:30.733Z,2.10
2023-12-30T17:45:34.056Z,2.20
2023-12-30T17:50:37.257Z,4.20
2023-12-30T17:55:42.514Z,6.87
2023-12-30T18:00:46.139Z,1.37
2023-12-30T18:05:49.574Z,1.73
2023-12-30T18:10:54.362Z,3.63
2023-12-30T18:15:59.878Z,1.20
2023-12-30T18:21:03.477Z,3.47
2023-12-30T18:26:13.825Z,2.20
2023-12-30T18:31:17.505Z,1.37
2023-12-30T18:36:21.032Z,8.13
2023-12-30T18:41:25.794Z,2.83
2023-12-30T18:46:30.347Z,1.27
2023-12-30T18:51:33.696Z,5.03
2023-12-30T18:56:38.993Z,4.33
2023-12-30T19:01:44.651Z,5.93
2023-12-30T19:06:48.009Z,3.07
2023-12-30T19:11:52.829Z,6.50
2023-12-30T19:16:56.151Z,8.43
2023-12-30T19:21:59.706Z,4.43
2023-12-30T19:27:04.617Z,4.77
2023-12-30T19:32:08.993Z,7.37
2023-12-30T19:37:13.225Z,14.60
2023-12-30T19:42:18.835Z,34.07
2023-12-30T19:47:22.654Z,23.80
2023-12-30T19:52:26.998Z,11.60
2023-12-30T19:57:32.043Z,10.30
2023-12-30T20:02:35.660Z,5.47
2023-12-30T20:07:39.562Z,1.83
2023-12-30T20:12:45.366Z,5.20
2023-12-30T20:17:49.038Z,4.47
2023-12-30T20:22:52.563Z,11.00
2023-12-30T20:27:58.129Z,12.70
2023-12-30T20:33:02.287Z,43.97
2023-12-30T20:38:06.191Z,80.60
2023-12-30T20:43:11.088Z,43.87
2023-12-30T20:48:14.627Z,36.67
2023-12-30T20:53:18.090Z,24.93
2023-12-30T20:58:22.858Z,20.07
2023-12-30T21:03:27.402Z,13.13
2023-12-30T21:08:30.934Z,22.03
2023-12-30T21:13:37.923Z,13.37
2023-12-30T21:18:41.310Z,13.93
2023-12-30T21:23:46.704Z,14.07
2023-12-30T21:28:51.526Z,26.33
2023-12-30T21:33:55.209Z,20.57
2023-12-30T21:38:58.615Z,59.20
2023-12-30T21:44:03.639Z,21.17
2023-12-30T21:49:07.060Z,15.90
2023-12-30T21:54:11.141Z,8.60
2023-12-30T21:59:15.750Z,32.03
2023-12-30T22:04:20.785Z,37.90
2023-12-30T22:09:24.019Z,25.30
2023-12-30T22:14:28.948Z,16.80
2023-12-30T22:19:32.917Z,15.87
2023-12-30T22:24:37.779Z,15.73
2023-12-30T22:29:43.782Z,11.33
2023-12-30T22:34:47.422Z,15.20
2023-12-30T22:39:51.868Z,10.20
2023-12-30T22:44:57.807Z,15.40
2023-12-30T22:50:01.525Z,8.33
2023-12-30T22:55:05.597Z,3.67
2023-12-30T23:00:12.528Z,7.13
2023-12-30T23:05:15.970Z,1.57
2023-12-30T23:10:19.788Z,35.33
2023-12-30T23:15:25.969Z,15.40
2023-12-30T23:20:29.347Z,6.53
2023-12-30T23:25:33.306Z,6.33
2023-12-30T23:30:38.102Z,3.17
2023-12-30T23:35:41.367Z,2.20
2023-12-30T23:40:44.795Z,1.97
2023-12-30T23:45:49.635Z,2.53
2023-12-30T23:50:53.269Z,2.33
2023-12-30T23:55:56.916Z,1.33
